B21 EFOU-EFKK
Flight info
| Callsign | B21 |
|---|---|
| Flight time | 0h 34m |
| Altitude | 2000 |
| Route | TASKI HAILUOTO RAAHE LOHTAJA SUNDI |
| Aircraft | HAWK/M-SDGIRY/C |
Departure
| Time | 2026-05-07 13:25 |
|---|---|
| Airport | Oulu Airport (EFOU) |
Arrival
| Time | 2026-05-07 13:59 |
|---|---|
| Airport | Kokkola-Pietarsaari Airport (EFKK) |
| Time | Latitude | Longitude | Altitude | Speed | Heading |
|---|---|---|---|---|---|
| 2026-05-07 13:14 | 64.93212 | 25.33702 | 40 ft | 0 kts | 283° |
| 2026-05-07 13:20 | 64.93219 | 25.33676 | 40 ft | 4 kts | 334° |
| 2026-05-07 13:20 | 64.93235 | 25.33684 | 40 ft | 0 kts | 30° |
| 2026-05-07 13:21 | 64.93268 | 25.33757 | 40 ft | 17 kts | 41° |
| 2026-05-07 13:21 | 64.93377 | 25.33919 | 46 ft | 15 kts | 33° |
| 2026-05-07 13:21 | 64.93464 | 25.34042 | 42 ft | 16 kts | 29° |
| 2026-05-07 13:21 | 64.93509 | 25.34271 | 40 ft | 21 kts | 121° |
| 2026-05-07 13:22 | 64.93421 | 25.34614 | 40 ft | 27 kts | 121° |
| 2026-05-07 13:22 | 64.93313 | 25.35036 | 40 ft | 31 kts | 120° |
| 2026-05-07 13:22 | 64.93208 | 25.35455 | 40 ft | 28 kts | 120° |
| 2026-05-07 13:22 | 64.93114 | 25.35826 | 40 ft | 25 kts | 121° |
| 2026-05-07 13:23 | 64.93029 | 25.36157 | 40 ft | 22 kts | 120° |
| 2026-05-07 13:23 | 64.92956 | 25.36447 | 40 ft | 19 kts | 121° |
| 2026-05-07 13:23 | 64.92892 | 25.36694 | 40 ft | 17 kts | 121° |
| 2026-05-07 13:23 | 64.92824 | 25.36959 | 40 ft | 21 kts | 121° |
| 2026-05-07 13:24 | 64.92745 | 25.37270 | 40 ft | 22 kts | 121° |
| 2026-05-07 13:24 | 64.92672 | 25.37558 | 40 ft | 19 kts | 121° |
| 2026-05-07 13:24 | 64.92610 | 25.37806 | 40 ft | 16 kts | 121° |
| 2026-05-07 13:24 | 64.92536 | 25.37942 | 40 ft | 13 kts | 182° |
| 2026-05-07 13:25 | 64.92476 | 25.37780 | 38 ft | 19 kts | 256° |
| 2026-05-07 13:25 | 64.92545 | 25.37273 | 42 ft | 67 kts | 301° |
| 2026-05-07 13:25 | 64.92975 | 25.35651 | 209 ft | 157 kts | 300° |
| 2026-05-07 13:25 | 64.93688 | 25.32899 | 1093 ft | 228 kts | 298° |
| 2026-05-07 13:26 | 64.94782 | 25.29846 | 1592 ft | 255 kts | 330° |
| 2026-05-07 13:26 | 64.96512 | 25.29678 | 1446 ft | 252 kts | 6° |
| 2026-05-07 13:26 | 64.98194 | 25.30269 | 1366 ft | 245 kts | 5° |
| 2026-05-07 13:26 | 64.99883 | 25.30760 | 1290 ft | 245 kts | 3° |
| 2026-05-07 13:27 | 65.01592 | 25.31191 | 1260 ft | 250 kts | 2° |
| 2026-05-07 13:27 | 65.03376 | 25.31516 | 1302 ft | 263 kts | 0° |
| 2026-05-07 13:27 | 65.05248 | 25.31784 | 1276 ft | 271 kts | 0° |
| 2026-05-07 13:27 | 65.07136 | 25.32009 | 1215 ft | 272 kts | 359° |
| 2026-05-07 13:28 | 65.09020 | 25.32161 | 1154 ft | 272 kts | 359° |
| 2026-05-07 13:28 | 65.10779 | 25.31206 | 1254 ft | 254 kts | 324° |
| 2026-05-07 13:28 | 65.11902 | 25.28171 | 1368 ft | 242 kts | 294° |
| 2026-05-07 13:28 | 65.12295 | 25.24379 | 1514 ft | 234 kts | 274° |
| 2026-05-07 13:29 | 65.12558 | 25.20611 | 1566 ft | 236 kts | 282° |
| 2026-05-07 13:29 | 65.13037 | 25.16856 | 1570 ft | 238 kts | 288° |
| 2026-05-07 13:29 | 65.13667 | 25.13204 | 1648 ft | 238 kts | 293° |
| 2026-05-07 13:29 | 65.14267 | 25.09583 | 1773 ft | 235 kts | 274° |
| 2026-05-07 13:30 | 65.13878 | 25.05763 | 1810 ft | 248 kts | 251° |
| 2026-05-07 13:30 | 65.13252 | 25.01714 | 1544 ft | 269 kts | 249° |
| 2026-05-07 13:30 | 65.12577 | 24.97538 | 1701 ft | 271 kts | 249° |
| 2026-05-07 13:30 | 65.11901 | 24.93373 | 1755 ft | 276 kts | 249° |
| 2026-05-07 13:31 | 65.11241 | 24.89088 | 1857 ft | 278 kts | 251° |
| 2026-05-07 13:31 | 65.10630 | 24.84724 | 1900 ft | 281 kts | 251° |
| 2026-05-07 13:31 | 65.09992 | 24.80280 | 1846 ft | 287 kts | 252° |
| 2026-05-07 13:31 | 65.09369 | 24.75785 | 1922 ft | 287 kts | 252° |
| 2026-05-07 13:32 | 65.08849 | 24.71214 | 1943 ft | 287 kts | 257° |
| 2026-05-07 13:32 | 65.08373 | 24.66613 | 2021 ft | 286 kts | 254° |
| 2026-05-07 13:32 | 65.07556 | 24.62312 | 2013 ft | 290 kts | 235° |
| 2026-05-07 13:32 | 65.06126 | 24.58884 | 1939 ft | 296 kts | 219° |
| 2026-05-07 13:33 | 65.04325 | 24.56505 | 1963 ft | 298 kts | 204° |
| 2026-05-07 13:33 | 65.02293 | 24.55535 | 2023 ft | 302 kts | 183° |
| 2026-05-07 13:33 | 65.00214 | 24.56143 | 1983 ft | 306 kts | 173° |
| 2026-05-07 13:33 | 64.98133 | 24.57005 | 2193 ft | 301 kts | 173° |
| 2026-05-07 13:34 | 64.96044 | 24.57926 | 2092 ft | 306 kts | 172° |
| 2026-05-07 13:34 | 64.91893 | 24.60286 | 2109 ft | 309 kts | 167° |
| 2026-05-07 13:34 | 64.89815 | 24.61610 | 2195 ft | 306 kts | 167° |
| 2026-05-07 13:35 | 64.87808 | 24.62902 | 2628 ft | 294 kts | 167° |
| 2026-05-07 13:35 | 64.85805 | 24.63908 | 2656 ft | 296 kts | 178° |
| 2026-05-07 13:35 | 64.83764 | 24.63177 | 2262 ft | 304 kts | 200° |
| 2026-05-07 13:35 | 64.81767 | 24.61561 | 2365 ft | 301 kts | 200° |
| 2026-05-07 13:36 | 64.79816 | 24.59835 | 2455 ft | 299 kts | 202° |
| 2026-05-07 13:36 | 64.77853 | 24.58091 | 2344 ft | 305 kts | 201° |
| 2026-05-07 13:36 | 64.75836 | 24.56373 | 2079 ft | 312 kts | 203° |
| 2026-05-07 13:36 | 64.73905 | 24.54225 | 2255 ft | 303 kts | 210° |
| 2026-05-07 13:37 | 64.72222 | 24.51393 | 2197 ft | 302 kts | 225° |
| 2026-05-07 13:37 | 64.70895 | 24.47654 | 2056 ft | 302 kts | 248° |
| 2026-05-07 13:37 | 64.70368 | 24.42890 | 2049 ft | 298 kts | 251° |
| 2026-05-07 13:37 | 64.68884 | 24.40010 | 2059 ft | 298 kts | 191° |
| 2026-05-07 13:38 | 64.66824 | 24.39426 | 2092 ft | 297 kts | 189° |
| 2026-05-07 13:38 | 64.64779 | 24.38807 | 2163 ft | 296 kts | 192° |
| 2026-05-07 13:38 | 64.62738 | 24.37757 | 2042 ft | 300 kts | 197° |
| 2026-05-07 13:38 | 64.60751 | 24.36398 | 1950 ft | 303 kts | 198° |
| 2026-05-07 13:39 | 64.58725 | 24.35050 | 2013 ft | 301 kts | 197° |
| 2026-05-07 13:39 | 64.56753 | 24.33502 | 2008 ft | 296 kts | 214° |
| 2026-05-07 13:39 | 64.55387 | 24.29924 | 1890 ft | 298 kts | 233° |
| 2026-05-07 13:39 | 64.54093 | 24.26102 | 1793 ft | 301 kts | 229° |
| 2026-05-07 13:40 | 64.52486 | 24.23078 | 1749 ft | 302 kts | 210° |
| 2026-05-07 13:40 | 64.50617 | 24.20827 | 1740 ft | 302 kts | 207° |
| 2026-05-07 13:40 | 64.48728 | 24.18656 | 1728 ft | 302 kts | 207° |
| 2026-05-07 13:40 | 64.47142 | 24.15653 | 1684 ft | 299 kts | 230° |
| 2026-05-07 13:41 | 64.45770 | 24.12034 | 1773 ft | 297 kts | 227° |
| 2026-05-07 13:41 | 64.44350 | 24.08542 | 1761 ft | 298 kts | 227° |
| 2026-05-07 13:41 | 64.42791 | 24.05377 | 1730 ft | 299 kts | 219° |
| 2026-05-07 13:41 | 64.41086 | 24.02591 | 1673 ft | 301 kts | 213° |
| 2026-05-07 13:42 | 64.39300 | 24.00032 | 1656 ft | 301 kts | 212° |
| 2026-05-07 13:42 | 64.37520 | 23.97570 | 1720 ft | 302 kts | 211° |
| 2026-05-07 13:42 | 64.35712 | 23.95119 | 1761 ft | 301 kts | 211° |
| 2026-05-07 13:42 | 64.33909 | 23.92681 | 1798 ft | 299 kts | 211° |
| 2026-05-07 13:43 | 64.32100 | 23.90244 | 1799 ft | 300 kts | 211° |
| 2026-05-07 13:43 | 64.30403 | 23.87487 | 1775 ft | 299 kts | 219° |
| 2026-05-07 13:43 | 64.28787 | 23.84426 | 1704 ft | 302 kts | 220° |
| 2026-05-07 13:43 | 64.26977 | 23.82081 | 1673 ft | 303 kts | 195° |
| 2026-05-07 13:44 | 64.24859 | 23.81362 | 1357 ft | 311 kts | 190° |
| 2026-05-07 13:44 | 64.23072 | 23.78951 | 1356 ft | 299 kts | 242° |
| 2026-05-07 13:44 | 64.22824 | 23.74336 | 1514 ft | 295 kts | 265° |
| 2026-05-07 13:44 | 64.22465 | 23.69746 | 1616 ft | 292 kts | 247° |
| 2026-05-07 13:45 | 64.21255 | 23.66068 | 1567 ft | 294 kts | 220° |
| 2026-05-07 13:45 | 64.19603 | 23.63321 | 1771 ft | 291 kts | 214° |
| 2026-05-07 13:45 | 64.17935 | 23.60736 | 2066 ft | 284 kts | 214° |
| 2026-05-07 13:45 | 64.16273 | 23.58285 | 2218 ft | 286 kts | 212° |
| 2026-05-07 13:46 | 64.14606 | 23.55835 | 2308 ft | 287 kts | 213° |
| 2026-05-07 13:46 | 64.12905 | 23.53352 | 2340 ft | 289 kts | 212° |
| 2026-05-07 13:46 | 64.11218 | 23.50871 | 2461 ft | 290 kts | 213° |
| 2026-05-07 13:46 | 64.09521 | 23.48342 | 2507 ft | 292 kts | 213° |
| 2026-05-07 13:47 | 64.07818 | 23.45745 | 2562 ft | 294 kts | 213° |
| 2026-05-07 13:47 | 64.06123 | 23.43114 | 2355 ft | 303 kts | 214° |
| 2026-05-07 13:47 | 64.04359 | 23.40350 | 2175 ft | 308 kts | 214° |
| 2026-05-07 13:47 | 64.02591 | 23.37619 | 2230 ft | 306 kts | 214° |
| 2026-05-07 13:48 | 64.00875 | 23.34761 | 2078 ft | 309 kts | 219° |
| 2026-05-07 13:48 | 63.99267 | 23.31408 | 1829 ft | 314 kts | 225° |
| 2026-05-07 13:48 | 63.97857 | 23.27643 | 1712 ft | 313 kts | 236° |
| 2026-05-07 13:48 | 63.96820 | 23.23268 | 1596 ft | 310 kts | 246° |
| 2026-05-07 13:49 | 63.96499 | 23.18745 | 2407 ft | 282 kts | 268° |
| 2026-05-07 13:49 | 63.96442 | 23.14131 | 1921 ft | 303 kts | 267° |
| 2026-05-07 13:49 | 63.96087 | 23.09340 | 1714 ft | 307 kts | 248° |
| 2026-05-07 13:49 | 63.94910 | 23.05349 | 1747 ft | 304 kts | 230° |
| 2026-05-07 13:50 | 63.93742 | 23.01427 | 1992 ft | 296 kts | 241° |
| 2026-05-07 13:50 | 63.92852 | 22.97250 | 2169 ft | 293 kts | 246° |
| 2026-05-07 13:50 | 63.92129 | 22.92866 | 2076 ft | 299 kts | 249° |
| 2026-05-07 13:50 | 63.91033 | 22.89117 | 2064 ft | 296 kts | 202° |
| 2026-05-07 13:51 | 63.88970 | 22.88694 | 1907 ft | 302 kts | 184° |
| 2026-05-07 13:51 | 63.86842 | 22.88196 | 1820 ft | 305 kts | 187° |
| 2026-05-07 13:51 | 63.84727 | 22.87686 | 1826 ft | 305 kts | 186° |
| 2026-05-07 13:51 | 63.82636 | 22.87453 | 2071 ft | 296 kts | 170° |
| 2026-05-07 13:52 | 63.81010 | 22.89980 | 2162 ft | 290 kts | 126° |
| 2026-05-07 13:52 | 63.79837 | 22.93533 | 1941 ft | 273 kts | 130° |
| 2026-05-07 13:52 | 63.78460 | 22.96181 | 1849 ft | 253 kts | 154° |
| 2026-05-07 13:52 | 63.76886 | 22.97900 | 1463 ft | 252 kts | 154° |
| 2026-05-07 13:53 | 63.75478 | 22.99996 | 1462 ft | 239 kts | 132° |
| 2026-05-07 13:53 | 63.74524 | 23.03102 | 1374 ft | 241 kts | 126° |
| 2026-05-07 13:53 | 63.73183 | 23.04812 | 1309 ft | 221 kts | 197° |
| 2026-05-07 13:53 | 63.71736 | 23.03813 | 1210 ft | 222 kts | 192° |
| 2026-05-07 13:54 | 63.70201 | 23.03309 | 1126 ft | 224 kts | 190° |
| 2026-05-07 13:54 | 63.68830 | 23.04570 | 1208 ft | 227 kts | 125° |
| 2026-05-07 13:54 | 63.68444 | 23.08010 | 1058 ft | 221 kts | 99° |
| 2026-05-07 13:54 | 63.68239 | 23.11238 | 897 ft | 195 kts | 93° |
| 2026-05-07 13:55 | 63.68823 | 23.13150 | 678 ft | 149 kts | 4° |
| 2026-05-07 13:55 | 63.69858 | 23.13418 | 330 ft | 147 kts | 8° |
| 2026-05-07 13:55 | 63.70800 | 23.13808 | 127 ft | 129 kts | 8° |
| 2026-05-07 13:55 | 63.71703 | 23.14188 | 252 ft | 152 kts | 11° |
| 2026-05-07 13:56 | 63.72980 | 23.14771 | 1110 ft | 223 kts | 7° |
| 2026-05-07 13:56 | 63.74647 | 23.14818 | 1601 ft | 252 kts | 325° |
| 2026-05-07 13:56 | 63.75337 | 23.11270 | 1637 ft | 262 kts | 282° |
| 2026-05-07 13:56 | 63.75368 | 23.07190 | 1683 ft | 263 kts | 237° |
| 2026-05-07 13:57 | 63.73789 | 23.05616 | 1566 ft | 252 kts | 193° |
| 2026-05-07 13:57 | 63.72124 | 23.04846 | 1428 ft | 243 kts | 196° |
| 2026-05-07 13:57 | 63.70535 | 23.03832 | 1343 ft | 231 kts | 202° |
| 2026-05-07 13:57 | 63.69035 | 23.04094 | 1280 ft | 226 kts | 142° |
| 2026-05-07 13:58 | 63.68451 | 23.07213 | 1163 ft | 220 kts | 97° |
| 2026-05-07 13:58 | 63.68277 | 23.10521 | 1054 ft | 200 kts | 95° |
| 2026-05-07 13:58 | 63.68636 | 23.13019 | 785 ft | 154 kts | 20° |
| 2026-05-07 13:58 | 63.69614 | 23.13307 | 427 ft | 135 kts | 1° |
| 2026-05-07 13:59 | 63.70475 | 23.13689 | 158 ft | 125 kts | 8° |
| 2026-05-07 13:59 | 63.71384 | 23.14068 | 85 ft | 127 kts | 9° |
| 2026-05-07 13:59 | 63.71915 | 23.14288 | 84 ft | 57 kts | 12° |
| 2026-05-07 13:59 | 63.72120 | 23.14326 | 83 ft | 19 kts | 321° |
| 2026-05-07 14:00 | 63.72166 | 23.14091 | 85 ft | 14 kts | 292° |
| 2026-05-07 14:00 | 63.72187 | 23.13965 | 84 ft | 12 kts | 293° |
| 2026-05-07 14:00 | 63.72199 | 23.13816 | 87 ft | 8 kts | 232° |
| 2026-05-07 14:00 | 63.72155 | 23.13759 | 84 ft | 6 kts | 201° |
| 2026-05-07 14:01 | 63.72110 | 23.13715 | 84 ft | 9 kts | 204° |
| 2026-05-07 14:01 | 63.72020 | 23.13622 | 84 ft | 13 kts | 206° |
| 2026-05-07 14:01 | 63.72007 | 23.13543 | 84 ft | 9 kts | 299° |
| 2026-05-07 14:01 | 63.72007 | 23.13421 | 84 ft | 1 kts | 183° |
| 2026-05-07 14:02 | 63.72002 | 23.13426 | 84 ft | 0 kts | 152° |